createdAt,value
2018-02-07T08:48:33.510Z,2984
2018-02-07T08:49:32.185Z,3064
2018-02-07T08:50:32.672Z,2992
2018-02-07T08:51:33.524Z,2908
2018-02-07T08:52:33.302Z,2956
2018-02-07T08:53:33.872Z,3212
2018-02-07T08:54:34.910Z,3424
2018-02-07T08:55:34.633Z,3468
2018-02-07T08:56:34.822Z,3476
2018-02-07T08:57:34.263Z,3456
2018-02-07T08:58:34.628Z,3556
2018-02-07T08:59:34.668Z,3768
2018-02-07T09:00:35.158Z,3976
2018-02-07T09:01:34.363Z,4052
2018-02-07T09:02:34.562Z,4088
2018-02-07T09:03:34.778Z,4128
2018-02-07T09:04:35.093Z,4164
2018-02-07T09:05:35.275Z,4244
2018-02-07T09:06:35.000Z,4432
2018-02-07T09:07:35.569Z,4676
2018-02-07T09:08:35.833Z,4856
2018-02-07T09:09:35.687Z,5000
2018-02-07T09:10:35.820Z,5104
2018-02-07T09:11:36.358Z,5224
2018-02-07T09:12:36.615Z,5340
2018-02-07T09:13:37.447Z,5336
2018-02-07T09:14:36.318Z,5124
2018-02-07T09:15:36.258Z,4944
2018-02-07T09:16:37.502Z,5008
2018-02-07T09:17:36.036Z,4436
2018-02-07T09:18:36.175Z,4412
2018-02-07T09:19:36.086Z,4536
2018-02-07T09:20:36.286Z,4264
2018-02-07T09:21:37.126Z,4272
2018-02-07T09:22:36.776Z,4984
2018-02-07T09:23:36.991Z,9852
2018-02-07T09:24:38.146Z,7716
2018-02-07T09:25:37.681Z,11232
2018-02-07T09:26:38.329Z,18080
2018-02-07T09:27:37.407Z,11412
2018-02-07T09:28:38.393Z,8744
2018-02-07T09:29:37.815Z,17472
2018-02-07T09:30:37.717Z,20192
2018-02-07T09:31:38.084Z,17184
2018-02-07T09:32:38.040Z,18080
2018-02-07T09:33:38.267Z,13652
2018-02-07T09:34:38.287Z,7068
2018-02-07T09:35:39.325Z,15936
2018-02-07T09:36:38.337Z,13532
2018-02-07T09:37:38.878Z,17696
2018-02-07T09:38:39.219Z,6584
2018-02-07T09:39:38.994Z,5972
2018-02-07T09:40:38.926Z,14496
2018-02-07T09:41:39.529Z,15616
2018-02-07T09:42:39.495Z,18816
2018-02-07T09:43:39.845Z,7708
2018-02-07T09:44:40.191Z,14784
2018-02-07T09:45:40.131Z,20384
2018-02-07T09:46:40.741Z,8272
2018-02-07T09:47:40.181Z,14080
2018-02-07T09:48:39.727Z,16224
2018-02-07T09:49:39.775Z,15040
2018-02-07T09:50:40.075Z,19104
2018-02-07T09:51:40.156Z,21344
2018-02-07T09:52:40.366Z,21216
2018-02-07T09:53:40.442Z,20896
2018-02-07T09:54:40.835Z,20768
2018-02-07T09:55:39.884Z,19200
2018-02-07T09:56:40.915Z,20256
2018-02-07T09:57:40.554Z,20096
2018-02-07T09:58:41.157Z,20192
2018-02-07T09:59:41.791Z,20544
2018-02-07T10:00:41.413Z,20864
2018-02-07T10:01:41.538Z,20960
2018-02-07T10:02:41.670Z,20928
2018-02-07T10:03:41.552Z,21216
2018-02-07T10:04:41.955Z,22144
2018-02-07T10:05:41.388Z,22720
2018-02-07T10:06:41.683Z,22624
2018-02-07T10:07:42.112Z,22912
2018-02-07T10:08:42.751Z,22912
2018-02-07T10:09:42.430Z,22464
2018-02-07T10:10:43.154Z,22752
2018-02-07T10:11:43.618Z,23552
2018-02-07T10:12:44.227Z,24320
2018-02-07T10:13:43.196Z,24320
2018-02-07T10:14:44.273Z,24864
2018-02-07T10:15:43.944Z,25440
2018-02-07T10:16:44.164Z,25728
2018-02-07T10:17:44.262Z,25696
2018-02-07T10:18:44.502Z,25376
2018-02-07T10:19:44.064Z,25024
2018-02-07T10:20:44.430Z,24704
2018-02-07T10:21:45.211Z,24544
2018-02-07T10:22:45.490Z,24416
2018-02-07T10:23:44.861Z,23616
2018-02-07T10:24:44.752Z,22016
2018-02-07T10:25:44.040Z,22080
2018-02-07T10:26:44.775Z,23264
2018-02-07T10:27:44.834Z,23680
2018-02-07T10:28:44.355Z,22304
2018-02-07T10:29:44.607Z,15744
2018-02-07T10:30:45.092Z,24704
2018-02-07T10:31:44.580Z,18944
2018-02-07T10:32:45.100Z,15648
2018-02-07T10:33:45.543Z,11544
2018-02-07T10:34:45.277Z,13248
2018-02-07T10:35:45.145Z,9012
2018-02-07T10:36:45.384Z,9540
2018-02-07T10:37:45.385Z,8996
2018-02-07T10:38:45.784Z,7348
2018-02-07T10:39:45.713Z,9456
2018-02-07T10:40:45.213Z,8904
2018-02-07T10:41:45.796Z,11844
2018-02-07T10:42:45.539Z,10844
2018-02-07T10:43:45.801Z,9968
2018-02-07T10:44:45.040Z,10112
2018-02-07T10:45:45.862Z,10228
2018-02-07T10:46:45.638Z,8500
2018-02-07T10:47:45.374Z,8916
2018-02-07T10:48:45.981Z,7116
2018-02-07T10:49:47.109Z,5680
2018-02-07T10:50:47.352Z,5328
2018-02-07T10:51:47.041Z,5252
2018-02-07T10:52:46.184Z,5052
2018-02-07T10:53:47.361Z,4796
2018-02-07T10:54:47.521Z,4548
2018-02-07T10:55:46.470Z,4336
2018-02-07T10:56:46.714Z,4232
2018-02-07T10:57:46.907Z,4172
2018-02-07T10:58:46.748Z,4108
2018-02-07T10:59:46.524Z,4016
2018-02-07T11:00:46.471Z,3844
2018-02-07T11:01:46.674Z,3816
2018-02-07T11:02:46.428Z,3900
2018-02-07T11:03:46.697Z,4012
2018-02-07T11:04:46.460Z,4088
2018-02-07T11:05:46.928Z,4068
2018-02-07T11:06:47.546Z,4128
2018-02-07T11:07:47.466Z,4360
2018-02-07T11:08:47.633Z,4524
2018-02-07T11:09:48.329Z,4700
2018-02-07T11:10:47.753Z,4840
2018-02-07T11:11:48.407Z,4876
2018-02-07T11:12:48.749Z,4832
2018-02-07T11:13:48.694Z,4872
2018-02-07T11:14:48.377Z,4892
2018-02-07T11:15:49.023Z,4716
2018-02-07T11:16:48.729Z,4580
2018-02-07T11:17:49.061Z,4592
2018-02-07T11:18:48.904Z,4572
2018-02-07T11:19:49.326Z,4416
2018-02-07T11:20:49.453Z,4284
2018-02-07T11:21:49.386Z,4132
2018-02-07T11:22:49.056Z,3988
2018-02-07T11:23:49.364Z,3856
2018-02-07T11:24:49.080Z,3744
2018-02-07T11:25:49.516Z,3720
2018-02-07T11:26:49.794Z,3724
2018-02-07T11:27:49.994Z,3756
2018-02-07T11:28:51.160Z,3592
2018-02-07T11:29:50.053Z,3400
2018-02-07T11:30:50.635Z,3328
2018-02-07T11:31:50.543Z,3388
2018-02-07T11:32:50.810Z,3484
2018-02-07T11:33:51.507Z,3400
2018-02-07T11:34:50.315Z,3424
2018-02-07T11:35:50.562Z,3604
2018-02-07T11:36:52.520Z,3836
2018-02-07T11:37:52.788Z,3824
2018-02-07T11:38:52.859Z,3752
2018-02-07T11:39:51.565Z,3592
2018-02-07T11:40:53.153Z,3532
2018-02-07T11:41:52.343Z,3376
2018-02-07T11:42:52.108Z,3116
2018-02-07T11:43:52.943Z,3112
2018-02-07T11:44:52.568Z,3440
2018-02-07T11:45:52.528Z,3472
2018-02-07T11:46:52.735Z,3180
2018-02-07T11:47:52.135Z,3104
2018-02-07T11:48:52.249Z,3008
2018-02-07T11:49:52.973Z,2984
2018-02-07T11:50:53.581Z,2992
2018-02-07T11:51:53.261Z,2884
2018-02-07T11:52:52.817Z,2792
2018-02-07T11:53:53.678Z,2964
2018-02-07T11:54:53.236Z,3032
2018-02-07T11:55:53.182Z,3032
2018-02-07T11:56:52.513Z,3032
2018-02-07T11:57:52.774Z,3216
2018-02-07T11:58:52.604Z,3260
2018-02-07T11:59:53.056Z,3056
2018-02-07T12:00:54.378Z,2912
2018-02-07T12:01:53.169Z,3008
2018-02-07T12:02:53.023Z,3068
2018-02-07T12:03:53.219Z,3068
2018-02-07T12:04:54.350Z,3112
2018-02-07T12:05:54.577Z,3324
2018-02-07T12:06:54.357Z,3348
2018-02-07T12:07:53.761Z,3176
2018-02-07T12:08:54.511Z,3204
2018-02-07T12:09:54.273Z,3364
2018-02-07T12:10:54.279Z,3484
2018-02-07T12:11:54.193Z,3652
2018-02-07T12:12:54.450Z,3596
2018-02-07T12:13:54.555Z,3412
2018-02-07T12:14:54.856Z,3316
2018-02-07T12:15:55.171Z,3272
2018-02-07T12:16:54.996Z,3260
2018-02-07T12:17:54.480Z,3204
2018-02-07T12:18:55.437Z,3288
2018-02-07T12:19:56.469Z,3516
2018-02-07T12:20:54.665Z,3804
2018-02-07T12:21:55.254Z,4016
2018-02-07T12:22:55.516Z,4020
2018-02-07T12:23:56.006Z,3960
2018-02-07T12:24:55.287Z,3732
2018-02-07T12:25:55.537Z,3844
2018-02-07T12:26:55.321Z,3924
2018-02-07T12:27:55.969Z,3860
2018-02-07T12:28:55.704Z,3896
2018-02-07T12:29:55.910Z,3872
2018-02-07T12:30:56.416Z,3660
2018-02-07T12:31:56.482Z,3876
2018-02-07T12:32:55.677Z,3944
2018-02-07T12:33:56.007Z,3712
2018-02-07T12:34:56.651Z,3612
2018-02-07T12:35:56.471Z,3484
2018-02-07T12:36:56.843Z,3260
2018-02-07T12:37:56.927Z,3168
2018-02-07T12:38:56.956Z,3328
2018-02-07T12:39:56.805Z,3344
2018-02-07T12:40:57.742Z,3236
2018-02-07T12:41:56.927Z,3152
2018-02-07T12:42:57.181Z,3128
2018-02-07T12:43:57.319Z,3008
2018-02-07T12:44:57.509Z,2712
2018-02-07T12:45:57.512Z,2588
2018-02-07T12:46:57.349Z,2532
2018-02-07T12:47:57.919Z,2560
2018-02-07T12:48:58.332Z,2424
2018-02-07T12:49:58.938Z,2244
2018-02-07T12:50:59.077Z,2128
2018-02-07T12:51:58.629Z,2356
2018-02-07T12:52:59.049Z,2488
2018-02-07T12:53:58.979Z,2604
2018-02-07T12:54:58.703Z,2496
2018-02-07T12:55:59.146Z,2332
2018-02-07T12:56:59.208Z,2608
2018-02-07T12:57:59.502Z,2716
2018-02-07T12:58:58.975Z,2644
2018-02-07T12:59:59.381Z,2684
2018-02-07T13:00:59.751Z,2640
2018-02-07T13:01:59.682Z,2604
2018-02-07T13:02:59.803Z,2540
2018-02-07T13:03:59.724Z,2476
2018-02-07T13:04:59.886Z,2444
2018-02-07T13:05:59.287Z,2424
2018-02-07T13:07:00.373Z,2388
2018-02-07T13:07:59.632Z,2364
2018-02-07T13:08:59.574Z,2360
2018-02-07T13:10:00.160Z,2368
2018-02-07T13:11:00.585Z,2400
2018-02-07T13:12:01.143Z,2220
2018-02-07T13:13:00.100Z,1988
2018-02-07T13:13:59.875Z,1872
2018-02-07T13:15:00.471Z,1868
2018-02-07T13:16:00.329Z,1976
2018-02-07T13:17:00.681Z,2100
2018-02-07T13:18:00.554Z,2264
2018-02-07T13:19:00.840Z,2372
2018-02-07T13:20:01.128Z,2340
2018-02-07T13:21:01.717Z,2332
2018-02-07T13:22:01.105Z,2372
2018-02-07T13:23:01.104Z,2468
2018-02-07T13:24:01.810Z,2536
2018-02-07T13:25:01.884Z,2544
2018-02-07T13:26:02.048Z,2508
2018-02-07T13:27:02.388Z,2532
2018-02-07T13:28:02.363Z,2552
2018-02-07T13:29:02.301Z,2548
2018-02-07T13:30:03.081Z,2528
2018-02-07T13:31:02.776Z,2520
2018-02-07T13:32:02.523Z,2492
2018-02-07T13:33:02.942Z,2456
2018-02-07T13:34:02.855Z,2432
2018-02-07T13:35:03.417Z,2356
2018-02-07T13:36:04.527Z,2284
2018-02-07T13:37:04.476Z,2208
2018-02-07T13:38:04.245Z,2136
2018-02-07T13:39:03.757Z,2116
2018-02-07T13:40:04.100Z,2180
2018-02-07T13:41:04.772Z,2384
2018-02-07T13:42:04.690Z,2344
2018-02-07T13:43:05.521Z,2192
2018-02-07T13:44:05.303Z,2080
2018-02-07T13:45:04.858Z,2032
2018-02-07T13:46:05.131Z,2016
2018-02-07T13:47:05.552Z,1916
2018-02-07T13:48:05.456Z,1760
2018-02-07T13:49:05.466Z,1632
2018-02-07T13:50:05.339Z,1540
2018-02-07T13:51:06.141Z,1532
2018-02-07T13:52:06.011Z,1556
2018-02-07T13:53:06.343Z,1556
2018-02-07T13:54:06.453Z,1524
2018-02-07T13:55:07.208Z,1524
2018-02-07T13:56:07.082Z,1532
2018-02-07T13:57:07.117Z,1572
2018-02-07T13:58:07.017Z,1608
2018-02-07T13:59:07.589Z,1656
2018-02-07T14:01:08.142Z,1712
2018-02-07T14:02:07.928Z,1712
2018-02-07T14:03:07.462Z,1700
2018-02-07T14:04:07.449Z,1688
2018-02-07T14:05:07.426Z,1684
2018-02-07T14:06:07.935Z,1680
2018-02-07T14:07:08.215Z,1668
2018-02-07T14:08:08.156Z,1656
2018-02-07T14:09:07.945Z,1644
2018-02-07T14:10:08.760Z,1640
2018-02-07T14:11:08.445Z,1632
2018-02-07T14:12:08.175Z,1628
2018-02-07T14:13:08.273Z,1628
2018-02-07T14:14:08.709Z,1628
2018-02-07T14:15:08.976Z,1624
2018-02-07T14:16:09.266Z,1612
2018-02-07T14:17:09.509Z,1608
2018-02-07T14:18:10.068Z,1600
2018-02-07T14:19:10.040Z,1592
2018-02-07T14:20:10.010Z,1568
2018-02-07T14:21:09.617Z,1548
2018-02-07T14:22:10.350Z,1536
2018-02-07T14:23:10.245Z,1540
2018-02-07T14:24:10.443Z,1536
2018-02-07T14:25:10.586Z,1532
2018-02-07T14:26:10.742Z,1528
2018-02-07T14:27:10.764Z,1516
2018-02-07T14:28:11.287Z,1508
2018-02-07T14:29:11.381Z,1492
2018-02-07T14:30:11.298Z,1468
2018-02-07T14:31:11.122Z,1444
2018-02-07T14:32:11.338Z,1416
2018-02-07T14:33:10.838Z,1392
2018-02-07T14:34:11.383Z,1372
2018-02-07T14:35:11.934Z,1352
2018-02-07T14:36:11.584Z,1332
2018-02-07T14:37:11.612Z,1320
2018-02-07T14:38:11.370Z,1308
2018-02-07T14:39:11.433Z,1296
2018-02-07T14:40:12.183Z,1284
2018-02-07T14:41:11.691Z,1272
2018-02-07T14:42:11.439Z,1260
2018-02-07T14:43:11.934Z,1248
2018-02-07T14:44:12.184Z,1240
2018-02-07T14:45:12.334Z,1228
2018-02-07T14:46:12.358Z,1216
2018-02-07T14:47:12.814Z,1204
2018-02-07T14:48:13.072Z,1188
2018-02-07T14:49:13.283Z,1180
2018-02-07T14:50:13.743Z,1172
2018-02-07T14:51:13.722Z,1160
2018-02-07T14:52:14.539Z,1148
2018-02-07T14:53:14.254Z,1132
2018-02-07T14:54:15.045Z,1112
2018-02-07T14:55:14.757Z,1100
2018-02-07T14:56:14.931Z,1088
2018-02-07T14:57:15.386Z,1072
2018-02-07T14:58:15.690Z,1056
2018-02-07T14:59:15.432Z,1044
2018-02-07T15:00:15.119Z,1032
2018-02-07T15:01:15.989Z,1016
2018-02-07T15:02:15.865Z,1004
2018-02-07T15:03:16.038Z,988
2018-02-07T15:04:16.394Z,972
2018-02-07T15:05:16.813Z,960
2018-02-07T15:06:17.221Z,948
2018-02-07T15:07:17.088Z,932
2018-02-07T15:08:17.262Z,916
2018-02-07T15:09:17.300Z,904
2018-02-07T15:10:17.860Z,884
2018-02-07T15:11:17.593Z,868
2018-02-07T15:12:17.629Z,856
2018-02-07T15:13:17.920Z,840
2018-02-07T15:14:18.286Z,824
2018-02-07T15:15:18.124Z,812
2018-02-07T15:16:18.445Z,796
2018-02-07T15:17:19.083Z,780
2018-02-07T15:18:18.920Z,764
2018-02-07T15:19:18.833Z,748
2018-02-07T15:20:18.803Z,732
2018-02-07T15:21:19.266Z,716
2018-02-07T15:22:18.995Z,700
2018-02-07T15:23:19.138Z,684
2018-02-07T15:24:19.030Z,668
2018-02-07T15:25:19.534Z,656
2018-02-07T15:26:19.959Z,636
2018-02-07T15:27:20.146Z,624
2018-02-07T15:28:20.434Z,608
2018-02-07T15:29:20.827Z,596
2018-02-07T15:30:20.746Z,580
2018-02-07T15:31:20.883Z,560
2018-02-07T15:32:21.492Z,544
2018-02-07T15:33:21.233Z,528
2018-02-07T15:34:20.986Z,516
2018-02-07T15:35:21.600Z,500
2018-02-07T15:36:21.101Z,484
2018-02-07T15:37:21.682Z,472
2018-02-07T15:38:22.141Z,456
2018-02-07T15:39:22.543Z,436
2018-02-07T15:40:22.381Z,424
2018-02-07T15:41:22.396Z,408
2018-02-07T15:42:22.690Z,392
2018-02-07T15:43:22.477Z,376
2018-02-07T15:44:22.819Z,364
2018-02-07T15:45:22.671Z,344
2018-02-07T15:46:23.077Z,332
2018-02-07T15:47:23.163Z,320
2018-02-07T15:48:23.295Z,300
2018-02-07T15:49:23.245Z,288
2018-02-07T15:50:23.001Z,272
2018-02-07T15:51:23.556Z,260
2018-02-07T15:52:23.269Z,244
2018-02-07T15:53:23.949Z,232
2018-02-07T15:54:23.880Z,216
2018-02-07T15:55:24.813Z,204
2018-02-07T15:56:24.658Z,192
2018-02-07T15:57:24.761Z,180
2018-02-07T15:58:24.389Z,168
2018-02-07T15:59:23.866Z,156
2018-02-07T16:00:24.907Z,148
2018-02-07T16:01:24.839Z,136
2018-02-07T16:02:24.268Z,124
2018-02-07T16:03:24.757Z,116
2018-02-07T16:04:24.959Z,104
2018-02-07T16:05:24.911Z,96
2018-02-07T16:06:25.263Z,88
2018-02-07T16:07:26.643Z,76
2018-02-07T16:08:26.697Z,72
2018-02-07T16:09:25.748Z,64
2018-02-07T16:10:25.933Z,60
2018-02-07T16:11:25.026Z,52
2018-02-07T16:12:24.768Z,44
2018-02-07T16:13:25.128Z,40
2018-02-07T16:14:25.511Z,36
2018-02-07T16:15:24.937Z,32
2018-02-07T16:16:26.607Z,28
2018-02-07T16:17:26.561Z,24
2018-02-07T16:18:25.928Z,20
2018-02-07T16:19:25.908Z,16
2018-02-07T16:20:26.029Z,16
2018-02-07T16:21:25.946Z,16
2018-02-07T16:22:26.173Z,12
2018-02-07T16:23:26.248Z,8
2018-02-07T16:24:26.447Z,8
2018-02-07T16:25:26.502Z,8
2018-02-07T16:26:26.679Z,8
2018-02-07T16:27:26.471Z,4
2018-02-07T16:28:27.063Z,4
2018-02-07T16:29:27.084Z,4
2018-02-07T16:30:28.203Z,0
2018-02-07T16:31:28.714Z,4
2018-02-07T16:32:28.418Z,0
2018-02-07T16:33:27.801Z,0
2018-02-07T16:34:28.085Z,4
2018-02-07T16:35:29.013Z,0
2018-02-07T16:36:28.670Z,0
2018-02-07T16:37:28.377Z,0
2018-02-07T16:38:28.871Z,0
2018-02-07T16:39:28.581Z,0
2018-02-07T16:40:29.220Z,0
2018-02-07T16:41:28.697Z,0
2018-02-07T16:42:29.650Z,0
2018-02-07T16:43:29.564Z,0
2018-02-07T16:44:29.328Z,0
2018-02-07T16:45:29.529Z,4
2018-02-07T16:46:29.813Z,4
2018-02-07T16:47:30.077Z,4
2018-02-07T16:48:30.474Z,4
2018-02-07T16:49:30.197Z,4
2018-02-07T16:50:30.702Z,4
2018-02-07T16:51:30.580Z,4
2018-02-07T16:52:31.138Z,4
2018-02-07T16:53:30.946Z,4
2018-02-07T16:54:31.284Z,4
2018-02-07T16:55:31.927Z,4
2018-02-07T16:56:31.347Z,4
2018-02-07T16:57:31.847Z,4
2018-02-07T16:58:31.730Z,4
2018-02-07T16:59:31.609Z,4
2018-02-07T17:00:31.907Z,4
2018-02-07T17:01:32.351Z,4
2018-02-07T17:02:32.290Z,4
2018-02-07T17:03:32.976Z,4
2018-02-07T17:04:32.804Z,4
2018-02-07T17:05:32.868Z,4
2018-02-07T17:06:32.814Z,4
2018-02-07T17:07:32.262Z,4
2018-02-07T17:08:33.586Z,4
2018-02-07T17:09:33.584Z,4
2018-02-07T17:10:33.777Z,4
2018-02-07T17:11:33.648Z,4
2018-02-07T17:12:33.605Z,4
2018-02-07T17:13:33.943Z,4
2018-02-07T17:14:33.445Z,4
2018-02-07T17:15:33.903Z,4
2018-02-07T17:16:33.996Z,4
2018-02-07T17:17:33.709Z,4
2018-02-07T17:18:34.892Z,4
2018-02-07T17:19:35.170Z,4
2018-02-07T17:20:34.370Z,4
2018-02-07T17:21:34.346Z,4
2018-02-07T17:22:33.763Z,0
2018-02-07T17:23:34.316Z,0
2018-02-07T17:24:33.604Z,0
2018-02-07T17:25:33.896Z,0
2018-02-07T17:26:34.005Z,0
2018-02-07T17:27:33.917Z,0
2018-02-07T17:28:33.888Z,0
2018-02-07T17:29:34.772Z,0
2018-02-07T17:30:34.598Z,0
2018-02-07T17:31:34.522Z,0
2018-02-07T17:32:35.092Z,0
2018-02-07T17:33:35.097Z,0
2018-02-07T17:34:34.590Z,0
2018-02-07T17:35:35.067Z,0
2018-02-07T17:36:35.293Z,0
2018-02-07T17:37:35.227Z,0
2018-02-07T17:38:35.580Z,0
2018-02-07T17:39:35.697Z,0
2018-02-07T17:40:35.891Z,0
2018-02-07T17:41:36.238Z,0
2018-02-07T17:42:37.044Z,0
2018-02-07T17:43:36.882Z,0
2018-02-07T17:44:36.309Z,0
2018-02-07T17:45:36.333Z,0
2018-02-07T17:46:36.608Z,0
2018-02-07T17:47:37.221Z,0
2018-02-07T17:48:38.888Z,0
2018-02-07T17:49:37.310Z,0
2018-02-07T17:50:37.169Z,0
2018-02-07T17:51:37.354Z,0
2018-02-07T17:52:37.467Z,0
2018-02-07T17:53:37.695Z,0
2018-02-07T17:54:37.243Z,0
2018-02-07T17:55:37.795Z,0
2018-02-07T17:56:36.942Z,0
2018-02-07T17:57:37.557Z,0
2018-02-07T17:58:37.213Z,0
2018-02-07T17:59:38.014Z,0
2018-02-07T18:00:37.492Z,0
2018-02-07T18:01:37.707Z,0
2018-02-07T18:02:38.346Z,0
2018-02-07T18:03:38.081Z,0
2018-02-07T18:04:38.312Z,0
2018-02-07T18:05:37.767Z,0
2018-02-07T18:06:38.383Z,0
2018-02-07T18:07:38.193Z,0
2018-02-07T18:08:38.272Z,0
2018-02-07T18:09:38.088Z,0
2018-02-07T18:10:38.798Z,0
2018-02-07T18:11:38.596Z,0
2018-02-07T18:12:39.331Z,0
2018-02-07T18:13:38.679Z,0
2018-02-07T18:14:39.607Z,0
2018-02-07T18:15:39.183Z,0
2018-02-07T18:16:39.687Z,0
2018-02-07T18:17:39.453Z,0
2018-02-07T18:18:39.422Z,0
2018-02-07T18:19:39.871Z,0
2018-02-07T18:20:39.384Z,0
2018-02-07T18:21:40.059Z,0
2018-02-07T18:22:40.277Z,0
2018-02-07T18:23:40.230Z,0
2018-02-07T18:24:40.723Z,0
2018-02-07T18:25:40.396Z,0
2018-02-07T18:26:39.513Z,0
2018-02-07T18:27:40.360Z,0
2018-02-07T18:28:39.873Z,0
2018-02-07T18:29:40.611Z,0
2018-02-07T18:30:40.672Z,0
2018-02-07T18:31:40.856Z,0
2018-02-07T18:32:40.502Z,0
2018-02-07T18:33:40.520Z,0
2018-02-07T18:34:40.688Z,0
2018-02-07T18:35:41.264Z,0
2018-02-07T18:36:41.711Z,0
2018-02-07T18:37:41.055Z,0
2018-02-07T18:38:41.594Z,0
2018-02-07T18:39:41.788Z,0
2018-02-07T18:40:41.790Z,0
2018-02-07T18:41:42.237Z,0
2018-02-07T18:42:41.952Z,0
2018-02-07T18:43:42.056Z,0
2018-02-07T18:44:42.108Z,0
2018-02-07T18:45:42.775Z,0
2018-02-07T18:46:43.412Z,0
2018-02-07T18:47:43.207Z,0
2018-02-07T18:48:43.678Z,0
2018-02-07T18:49:43.392Z,0
2018-02-07T18:50:44.755Z,0
2018-02-07T18:51:44.015Z,0
2018-02-07T18:52:44.134Z,0
2018-02-07T18:53:44.507Z,0
2018-02-07T18:54:44.039Z,0
2018-02-07T18:55:44.681Z,0
2018-02-07T18:56:44.461Z,0
2018-02-07T18:57:44.333Z,0
2018-02-07T18:58:44.505Z,0
2018-02-07T18:59:44.376Z,0
2018-02-07T19:00:44.163Z,0
2018-02-07T19:01:44.146Z,0
2018-02-07T19:02:44.573Z,0
2018-02-07T19:03:44.180Z,0
2018-02-07T19:04:44.859Z,0
2018-02-07T19:05:45.053Z,0
2018-02-07T19:06:45.038Z,0
2018-02-07T19:07:45.755Z,0
2018-02-07T19:08:45.717Z,0
2018-02-07T19:09:45.877Z,0
2018-02-07T19:10:45.925Z,0
2018-02-07T19:11:46.294Z,0
2018-02-07T19:12:45.857Z,0
2018-02-07T19:13:46.318Z,0
2018-02-07T19:14:46.390Z,0
2018-02-07T19:15:46.116Z,0
2018-02-07T19:16:46.156Z,0
2018-02-07T19:17:46.194Z,0
2018-02-07T19:18:46.884Z,0
2018-02-07T19:19:46.774Z,0
2018-02-07T19:20:46.948Z,0
2018-02-07T19:21:47.191Z,0
2018-02-07T19:22:47.878Z,0
2018-02-07T19:23:48.053Z,0
2018-02-07T19:24:47.616Z,0
2018-02-07T19:25:47.561Z,0
2018-02-07T19:26:48.202Z,0
2018-02-07T19:27:48.851Z,0
2018-02-07T19:28:47.657Z,0
2018-02-07T19:29:47.733Z,0
2018-02-07T19:30:47.443Z,0
2018-02-07T19:31:47.529Z,0
2018-02-07T19:32:47.381Z,0
2018-02-07T19:33:47.565Z,0
2018-02-07T19:34:47.688Z,0
2018-02-07T19:35:48.021Z,0
2018-02-07T19:36:47.737Z,0
2018-02-07T19:37:48.305Z,0
2018-02-07T19:38:47.926Z,0
2018-02-07T19:39:49.097Z,0
2018-02-07T19:40:47.913Z,0
2018-02-07T19:41:47.585Z,0
2018-02-07T19:42:48.047Z,0
2018-02-07T19:43:48.328Z,0
2018-02-07T19:44:48.147Z,0
2018-02-07T19:45:47.998Z,0
2018-02-07T19:46:48.373Z,0
2018-02-07T19:47:48.863Z,0
2018-02-07T19:48:49.344Z,0
2018-02-07T19:49:48.644Z,0
2018-02-07T19:50:48.801Z,0
2018-02-07T19:51:48.857Z,0
2018-02-07T19:52:49.860Z,0
2018-02-07T19:53:49.367Z,0
2018-02-07T19:54:49.023Z,0
2018-02-07T19:55:49.138Z,0
2018-02-07T19:56:49.157Z,0
2018-02-07T19:57:49.289Z,0
2018-02-07T19:58:49.653Z,0
2018-02-07T19:59:50.754Z,0
2018-02-07T20:00:50.167Z,0
2018-02-07T20:01:50.565Z,0
2018-02-07T20:02:50.424Z,0
2018-02-07T20:03:50.483Z,0
2018-02-07T20:04:49.960Z,0
2018-02-07T20:05:50.314Z,0
2018-02-07T20:06:50.762Z,0
2018-02-07T20:07:50.648Z,0
2018-02-07T20:08:50.023Z,0
2018-02-07T20:09:50.933Z,0
2018-02-07T20:10:50.961Z,0
2018-02-07T20:11:50.640Z,0
2018-02-07T20:12:50.700Z,0
2018-02-07T20:13:50.664Z,0
2018-02-07T20:14:51.055Z,0
2018-02-07T20:15:50.933Z,0
2018-02-07T20:16:51.381Z,0
2018-02-07T20:17:50.744Z,0
2018-02-07T20:18:51.338Z,0
2018-02-07T20:19:51.735Z,0
2018-02-07T20:20:52.603Z,0
2018-02-07T20:21:52.235Z,0
2018-02-07T20:22:51.133Z,0
2018-02-07T20:23:51.885Z,0
2018-02-07T20:24:52.268Z,0
2018-02-07T20:25:52.264Z,0
2018-02-07T20:26:52.349Z,0
2018-02-07T20:27:52.164Z,0
2018-02-07T20:28:52.289Z,0
2018-02-07T20:29:52.605Z,0
2018-02-07T20:30:52.610Z,0
2018-02-07T20:31:53.774Z,0
2018-02-07T20:32:53.946Z,0
2018-02-07T20:33:53.280Z,0
2018-02-07T20:34:52.981Z,0
2018-02-07T20:35:53.713Z,0
2018-02-07T20:36:53.044Z,0
2018-02-07T20:37:53.535Z,0
2018-02-07T20:38:54.148Z,0
2018-02-07T20:39:53.905Z,0
2018-02-07T20:40:53.551Z,0
2018-02-07T20:41:53.559Z,0
2018-02-07T20:42:54.321Z,0
2018-02-07T20:43:53.919Z,0
2018-02-07T20:44:54.917Z,0
2018-02-07T20:45:54.903Z,0
2018-02-07T20:46:54.723Z,0
2018-02-07T20:47:55.014Z,0
2018-02-07T20:48:55.061Z,0
2018-02-07T20:49:55.006Z,0
2018-02-07T20:50:55.235Z,0
2018-02-07T20:51:55.717Z,0
2018-02-07T20:52:55.577Z,0
2018-02-07T20:53:55.753Z,0
2018-02-07T20:54:56.279Z,0
2018-02-07T20:55:56.515Z,0
2018-02-07T20:56:56.560Z,0
2018-02-07T20:57:56.646Z,0
2018-02-07T20:58:56.608Z,0
2018-02-07T20:59:57.077Z,0
2018-02-07T21:00:57.254Z,0
2018-02-07T21:01:57.119Z,0
2018-02-07T21:02:57.928Z,0
2018-02-07T21:03:57.588Z,0
2018-02-07T21:04:57.308Z,0
2018-02-07T21:05:57.480Z,0
2018-02-07T21:06:57.467Z,0
2018-02-07T21:07:57.902Z,0
2018-02-07T21:08:57.424Z,0
2018-02-07T21:09:57.916Z,0
2018-02-07T21:10:58.259Z,0
2018-02-07T21:11:57.987Z,0
2018-02-07T21:12:58.635Z,4
2018-02-07T21:13:57.815Z,4
2018-02-07T21:14:58.052Z,4
2018-02-07T21:15:58.070Z,4
2018-02-07T21:16:58.670Z,4
2018-02-07T21:17:58.443Z,4
2018-02-07T21:18:58.223Z,4
2018-02-07T21:19:58.253Z,4
2018-02-07T21:20:58.672Z,4
2018-02-07T21:21:58.297Z,4
2018-02-07T21:22:58.616Z,4
2018-02-07T21:23:58.736Z,4
2018-02-07T21:24:59.015Z,4
2018-02-07T21:25:59.354Z,4
2018-02-07T21:26:59.866Z,4
2018-02-07T21:27:58.799Z,4
2018-02-07T21:28:58.790Z,4
2018-02-07T21:29:59.284Z,4
2018-02-07T21:30:59.632Z,4
2018-02-07T21:31:59.796Z,4
2018-02-07T21:33:00.107Z,4
2018-02-07T21:34:00.087Z,4
2018-02-07T21:35:01.015Z,4
2018-02-07T21:36:00.337Z,4
2018-02-07T21:37:00.178Z,4
2018-02-07T21:37:59.652Z,4
2018-02-07T21:39:00.660Z,4
2018-02-07T21:40:01.124Z,4
2018-02-07T21:41:00.689Z,4
2018-02-07T21:42:00.076Z,4
2018-02-07T21:43:00.335Z,4
2018-02-07T21:44:00.494Z,4
2018-02-07T21:45:00.404Z,4
2018-02-07T21:46:00.508Z,4
2018-02-07T21:47:00.551Z,4
2018-02-07T21:48:00.712Z,4
2018-02-07T21:49:00.448Z,4
2018-02-07T21:50:00.710Z,4
2018-02-07T21:51:00.866Z,4
2018-02-07T21:52:01.443Z,4
2018-02-07T21:53:00.982Z,4
2018-02-07T21:54:01.031Z,4
2018-02-07T21:55:01.033Z,4
2018-02-07T21:56:02.103Z,4
2018-02-07T21:57:03.117Z,4
2018-02-07T21:58:03.438Z,4
2018-02-07T21:59:02.569Z,4
2018-02-07T22:01:02.547Z,4
2018-02-07T22:02:02.677Z,4
2018-02-07T22:03:02.243Z,4
2018-02-07T22:04:02.452Z,4
2018-02-07T22:05:03.359Z,4
2018-02-07T22:06:03.764Z,4
2018-02-07T22:07:03.659Z,4
2018-02-07T22:08:03.925Z,4
2018-02-07T22:09:03.086Z,4
2018-02-07T22:10:03.255Z,4
2018-02-07T22:11:03.637Z,4
2018-02-07T22:12:02.919Z,4
2018-02-07T22:13:02.825Z,4
2018-02-07T22:14:03.700Z,4
2018-02-07T22:15:02.544Z,4
2018-02-07T22:16:02.913Z,4
2018-02-07T22:17:02.202Z,4
2018-02-07T22:18:02.408Z,4
2018-02-07T22:19:02.680Z,4
2018-02-07T22:20:03.049Z,4
2018-02-07T22:21:02.474Z,4
2018-02-07T22:22:02.720Z,4
2018-02-07T22:23:02.879Z,4
2018-02-07T22:24:03.560Z,4
2018-02-07T22:25:03.289Z,4
2018-02-07T22:26:03.565Z,4
2018-02-07T22:27:03.575Z,4
2018-02-07T22:28:03.388Z,4
2018-02-07T22:29:03.519Z,4
2018-02-07T22:30:03.615Z,4
2018-02-07T22:31:03.766Z,4
2018-02-07T22:32:04.688Z,4
2018-02-07T22:33:04.551Z,4
2018-02-07T22:34:04.833Z,4
2018-02-07T22:35:04.404Z,4
2018-02-07T22:36:05.106Z,4
2018-02-07T22:37:04.941Z,4
2018-02-07T22:38:05.479Z,4
2018-02-07T22:39:05.168Z,4
2018-02-07T22:40:05.184Z,4
2018-02-07T22:41:05.744Z,4
2018-02-07T22:42:05.210Z,4
2018-02-07T22:43:05.999Z,4
2018-02-07T22:44:06.321Z,4
2018-02-07T22:45:05.757Z,4
2018-02-07T22:46:05.467Z,4
2018-02-07T22:47:05.853Z,4
2018-02-07T22:48:06.652Z,4
2018-02-07T22:49:06.882Z,4
2018-02-07T22:50:06.119Z,4